sensor_id;sensor_type;location;lat;lon;timestamp;temperature;humidity
17728;DHT22;8984;49.268;12.302;2022-07-04T00:01:01;20.70;94.00
17728;DHT22;8984;49.268;12.302;2022-07-04T00:03:28;20.80;93.70
17728;DHT22;8984;49.268;12.302;2022-07-04T00:05:55;20.80;93.70
17728;DHT22;8984;49.268;12.302;2022-07-04T00:08:22;20.70;93.70
17728;DHT22;8984;49.268;12.302;2022-07-04T00:10:49;20.70;93.60
17728;DHT22;8984;49.268;12.302;2022-07-04T00:13:17;20.60;93.80
17728;DHT22;8984;49.268;12.302;2022-07-04T00:15:44;20.70;93.90
17728;DHT22;8984;49.268;12.302;2022-07-04T00:18:10;20.60;93.90
17728;DHT22;8984;49.268;12.302;2022-07-04T00:20:37;20.60;93.70
17728;DHT22;8984;49.268;12.302;2022-07-04T00:23:04;20.50;94.00
17728;DHT22;8984;49.268;12.302;2022-07-04T00:25:31;20.50;94.10
17728;DHT22;8984;49.268;12.302;2022-07-04T00:27:57;20.50;94.20
17728;DHT22;8984;49.268;12.302;2022-07-04T00:30:26;20.40;94.60
17728;DHT22;8984;49.268;12.302;2022-07-04T00:32:52;20.40;94.80
17728;DHT22;8984;49.268;12.302;2022-07-04T00:35:19;20.20;95.00
17728;DHT22;8984;49.268;12.302;2022-07-04T00:37:46;20.20;95.00
17728;DHT22;8984;49.268;12.302;2022-07-04T00:40:13;20.10;95.10
17728;DHT22;8984;49.268;12.302;2022-07-04T00:42:40;20.10;95.00
17728;DHT22;8984;49.268;12.302;2022-07-04T00:45:08;20.10;94.80
17728;DHT22;8984;49.268;12.302;2022-07-04T00:47:36;20.10;94.60
17728;DHT22;8984;49.268;12.302;2022-07-04T00:50:03;20.20;94.80
17728;DHT22;8984;49.268;12.302;2022-07-04T00:52:31;20.20;94.60
17728;DHT22;8984;49.268;12.302;2022-07-04T00:54:57;20.20;94.50
17728;DHT22;8984;49.268;12.302;2022-07-04T00:57:26;20.30;94.50
17728;DHT22;8984;49.268;12.302;2022-07-04T00:59:53;20.40;94.50
17728;DHT22;8984;49.268;12.302;2022-07-04T01:02:20;20.40;94.40
17728;DHT22;8984;49.268;12.302;2022-07-04T01:04:48;20.40;94.30
17728;DHT22;8984;49.268;12.302;2022-07-04T01:07:15;20.40;94.40
17728;DHT22;8984;49.268;12.302;2022-07-04T01:09:43;20.40;94.90
17728;DHT22;8984;49.268;12.302;2022-07-04T01:12:10;20.40;95.20
17728;DHT22;8984;49.268;12.302;2022-07-04T01:14:38;20.40;95.00
17728;DHT22;8984;49.268;12.302;2022-07-04T01:17:05;20.40;95.00
17728;DHT22;8984;49.268;12.302;2022-07-04T01:19:32;20.30;95.00
17728;DHT22;8984;49.268;12.302;2022-07-04T01:22:05;20.30;94.90
17728;DHT22;8984;49.268;12.302;2022-07-04T01:24:32;20.30;95.00
17728;DHT22;8984;49.268;12.302;2022-07-04T01:26:59;20.40;95.10
17728;DHT22;8984;49.268;12.302;2022-07-04T01:29:26;20.40;95.10
17728;DHT22;8984;49.268;12.302;2022-07-04T01:31:54;20.50;95.20
17728;DHT22;8984;49.268;12.302;2022-07-04T01:34:21;20.50;95.30
17728;DHT22;8984;49.268;12.302;2022-07-04T01:36:51;20.50;95.30
17728;DHT22;8984;49.268;12.302;2022-07-04T01:39:19;20.40;95.10
17728;DHT22;8984;49.268;12.302;2022-07-04T01:41:46;20.50;95.10
17728;DHT22;8984;49.268;12.302;2022-07-04T01:44:13;20.50;95.10
17728;DHT22;8984;49.268;12.302;2022-07-04T01:46:40;20.50;94.90
17728;DHT22;8984;49.268;12.302;2022-07-04T01:49:06;20.50;95.10
17728;DHT22;8984;49.268;12.302;2022-07-04T01:51:34;20.50;95.20
17728;DHT22;8984;49.268;12.302;2022-07-04T01:54:01;20.50;95.30
17728;DHT22;8984;49.268;12.302;2022-07-04T01:56:29;20.40;95.50
17728;DHT22;8984;49.268;12.302;2022-07-04T01:58:56;20.40;95.40
17728;DHT22;8984;49.268;12.302;2022-07-04T02:01:24;20.40;95.40
17728;DHT22;8984;49.268;12.302;2022-07-04T02:03:57;20.40;95.30
17728;DHT22;8984;49.268;12.302;2022-07-04T02:06:24;20.40;95.10
17728;DHT22;8984;49.268;12.302;2022-07-04T02:08:52;20.40;95.20
17728;DHT22;8984;49.268;12.302;2022-07-04T02:11:39;20.40;95.40
17728;DHT22;8984;49.268;12.302;2022-07-04T02:14:24;20.40;95.50
17728;DHT22;8984;49.268;12.302;2022-07-04T02:16:51;20.30;96.10
17728;DHT22;8984;49.268;12.302;2022-07-04T02:19:18;20.30;96.10
17728;DHT22;8984;49.268;12.302;2022-07-04T02:21:45;20.40;95.90
17728;DHT22;8984;49.268;12.302;2022-07-04T02:24:12;20.50;95.90
17728;DHT22;8984;49.268;12.302;2022-07-04T02:26:41;20.50;96.00
17728;DHT22;8984;49.268;12.302;2022-07-04T02:29:07;20.50;96.00
17728;DHT22;8984;49.268;12.302;2022-07-04T02:31:34;20.60;95.80
17728;DHT22;8984;49.268;12.302;2022-07-04T02:34:01;20.50;96.00
17728;DHT22;8984;49.268;12.302;2022-07-04T02:36:28;20.40;95.90
17728;DHT22;8984;49.268;12.302;2022-07-04T02:38:54;20.50;95.80
17728;DHT22;8984;49.268;12.302;2022-07-04T02:41:21;20.50;95.80
17728;DHT22;8984;49.268;12.302;2022-07-04T02:43:49;20.50;95.80
17728;DHT22;8984;49.268;12.302;2022-07-04T02:46:16;20.50;95.90
17728;DHT22;8984;49.268;12.302;2022-07-04T02:48:45;20.50;95.70
17728;DHT22;8984;49.268;12.302;2022-07-04T02:51:12;20.50;95.80
17728;DHT22;8984;49.268;12.302;2022-07-04T02:53:39;20.10;96.80
17728;DHT22;8984;49.268;12.302;2022-07-04T02:56:05;20.20;97.10
17728;DHT22;8984;49.268;12.302;2022-07-04T02:58:32;20.10;96.80
17728;DHT22;8984;49.268;12.302;2022-07-04T03:01:01;20.10;96.60
17728;DHT22;8984;49.268;12.302;2022-07-04T03:03:28;20.20;96.90
17728;DHT22;8984;49.268;12.302;2022-07-04T03:05:54;20.20;96.90
17728;DHT22;8984;49.268;12.302;2022-07-04T03:08:21;20.20;97.00
17728;DHT22;8984;49.268;12.302;2022-07-04T03:10:49;20.20;97.00
17728;DHT22;8984;49.268;12.302;2022-07-04T03:13:16;20.20;97.10
17728;DHT22;8984;49.268;12.302;2022-07-04T03:15:43;20.30;97.10
17728;DHT22;8984;49.268;12.302;2022-07-04T03:18:12;20.30;97.20
17728;DHT22;8984;49.268;12.302;2022-07-04T03:20:38;20.30;97.10
17728;DHT22;8984;49.268;12.302;2022-07-04T03:23:05;20.40;97.20
17728;DHT22;8984;49.268;12.302;2022-07-04T03:25:32;20.40;97.20
17728;DHT22;8984;49.268;12.302;2022-07-04T03:27:59;20.40;97.30
17728;DHT22;8984;49.268;12.302;2022-07-04T03:30:26;20.50;97.40
17728;DHT22;8984;49.268;12.302;2022-07-04T03:32:53;20.50;97.40
17728;DHT22;8984;49.268;12.302;2022-07-04T03:35:21;20.50;97.40
17728;DHT22;8984;49.268;12.302;2022-07-04T03:37:48;20.50;97.50
17728;DHT22;8984;49.268;12.302;2022-07-04T03:40:16;20.50;97.70
17728;DHT22;8984;49.268;12.302;2022-07-04T03:42:43;20.50;97.80
17728;DHT22;8984;49.268;12.302;2022-07-04T03:45:10;20.50;97.60
17728;DHT22;8984;49.268;12.302;2022-07-04T03:47:37;20.50;97.50
17728;DHT22;8984;49.268;12.302;2022-07-04T03:50:05;20.50;97.60
17728;DHT22;8984;49.268;12.302;2022-07-04T03:52:33;20.50;97.50
17728;DHT22;8984;49.268;12.302;2022-07-04T03:55:00;20.60;97.70
17728;DHT22;8984;49.268;12.302;2022-07-04T03:57:27;20.50;97.60
17728;DHT22;8984;49.268;12.302;2022-07-04T03:59:54;20.60;97.70
17728;DHT22;8984;49.268;12.302;2022-07-04T04:02:21;20.60;97.80
17728;DHT22;8984;49.268;12.302;2022-07-04T04:04:47;20.60;97.80
17728;DHT22;8984;49.268;12.302;2022-07-04T04:07:33;20.60;98.00
17728;DHT22;8984;49.268;12.302;2022-07-04T04:10:00;20.70;97.90
17728;DHT22;8984;49.268;12.302;2022-07-04T04:12:29;20.70;98.00
17728;DHT22;8984;49.268;12.302;2022-07-04T04:14:56;20.70;97.90
17728;DHT22;8984;49.268;12.302;2022-07-04T04:17:23;20.70;97.90
17728;DHT22;8984;49.268;12.302;2022-07-04T04:19:49;20.80;97.80
17728;DHT22;8984;49.268;12.302;2022-07-04T04:22:16;20.70;97.80
17728;DHT22;8984;49.268;12.302;2022-07-04T04:24:44;20.80;98.00
17728;DHT22;8984;49.268;12.302;2022-07-04T04:27:11;20.80;98.20
17728;DHT22;8984;49.268;12.302;2022-07-04T04:29:38;20.80;98.00
17728;DHT22;8984;49.268;12.302;2022-07-04T04:32:05;20.90;98.00
17728;DHT22;8984;49.268;12.302;2022-07-04T04:34:32;21.00;98.00
17728;DHT22;8984;49.268;12.302;2022-07-04T04:36:59;21.00;98.00
17728;DHT22;8984;49.268;12.302;2022-07-04T04:39:26;21.00;98.00
17728;DHT22;8984;49.268;12.302;2022-07-04T04:41:54;21.10;98.00
17728;DHT22;8984;49.268;12.302;2022-07-04T04:44:21;21.00;98.20
17728;DHT22;8984;49.268;12.302;2022-07-04T04:46:48;21.00;98.10
17728;DHT22;8984;49.268;12.302;2022-07-04T04:49:14;20.90;98.40
17728;DHT22;8984;49.268;12.302;2022-07-04T04:51:42;21.00;98.10
17728;DHT22;8984;49.268;12.302;2022-07-04T04:54:09;21.00;98.10
17728;DHT22;8984;49.268;12.302;2022-07-04T04:56:36;21.00;98.10
17728;DHT22;8984;49.268;12.302;2022-07-04T04:59:04;21.20;97.90
17728;DHT22;8984;49.268;12.302;2022-07-04T05:01:31;21.30;97.80
17728;DHT22;8984;49.268;12.302;2022-07-04T05:03:58;21.20;97.80
17728;DHT22;8984;49.268;12.302;2022-07-04T05:06:24;21.30;97.90
17728;DHT22;8984;49.268;12.302;2022-07-04T05:08:51;21.30;98.20
17728;DHT22;8984;49.268;12.302;2022-07-04T05:11:18;20.80;99.40
17728;DHT22;8984;49.268;12.302;2022-07-04T05:13:45;21.00;98.60
17728;DHT22;8984;49.268;12.302;2022-07-04T05:16:13;20.90;98.70
17728;DHT22;8984;49.268;12.302;2022-07-04T05:18:40;20.90;98.20
17728;DHT22;8984;49.268;12.302;2022-07-04T05:21:07;21.00;98.10
17728;DHT22;8984;49.268;12.302;2022-07-04T05:23:33;21.10;98.00
17728;DHT22;8984;49.268;12.302;2022-07-04T05:26:00;21.10;97.80
17728;DHT22;8984;49.268;12.302;2022-07-04T05:28:27;21.30;97.70
17728;DHT22;8984;49.268;12.302;2022-07-04T05:30:54;21.50;97.40
17728;DHT22;8984;49.268;12.302;2022-07-04T05:33:22;21.60;97.30
17728;DHT22;8984;49.268;12.302;2022-07-04T05:35:49;21.70;97.40
17728;DHT22;8984;49.268;12.302;2022-07-04T05:38:15;21.80;96.90
17728;DHT22;8984;49.268;12.302;2022-07-04T05:40:43;21.90;97.00
17728;DHT22;8984;49.268;12.302;2022-07-04T05:43:10;21.90;96.90
17728;DHT22;8984;49.268;12.302;2022-07-04T05:45:38;22.00;97.10
17728;DHT22;8984;49.268;12.302;2022-07-04T05:48:05;22.00;97.20
17728;DHT22;8984;49.268;12.302;2022-07-04T05:50:33;22.00;97.00
17728;DHT22;8984;49.268;12.302;2022-07-04T05:53:00;22.10;96.80
17728;DHT22;8984;49.268;12.302;2022-07-04T05:55:27;22.10;96.50
17728;DHT22;8984;49.268;12.302;2022-07-04T05:57:54;22.30;96.40
17728;DHT22;8984;49.268;12.302;2022-07-04T06:00:21;22.40;96.40
17728;DHT22;8984;49.268;12.302;2022-07-04T06:02:48;22.40;96.60
17728;DHT22;8984;49.268;12.302;2022-07-04T06:05:14;22.40;96.60
17728;DHT22;8984;49.268;12.302;2022-07-04T06:07:43;22.50;96.50
17728;DHT22;8984;49.268;12.302;2022-07-04T06:10:10;22.60;96.20
17728;DHT22;8984;49.268;12.302;2022-07-04T06:12:37;22.60;96.30
17728;DHT22;8984;49.268;12.302;2022-07-04T06:15:04;22.70;96.50
17728;DHT22;8984;49.268;12.302;2022-07-04T06:17:32;22.70;96.20
17728;DHT22;8984;49.268;12.302;2022-07-04T06:19:59;22.70;96.40
17728;DHT22;8984;49.268;12.302;2022-07-04T06:22:26;22.70;96.00
17728;DHT22;8984;49.268;12.302;2022-07-04T06:24:54;22.70;95.90
17728;DHT22;8984;49.268;12.302;2022-07-04T06:27:20;22.70;96.50
17728;DHT22;8984;49.268;12.302;2022-07-04T06:29:47;22.80;96.70
17728;DHT22;8984;49.268;12.302;2022-07-04T06:32:14;22.80;96.40
17728;DHT22;8984;49.268;12.302;2022-07-04T06:34:41;22.80;96.30
17728;DHT22;8984;49.268;12.302;2022-07-04T06:37:36;22.90;96.30
17728;DHT22;8984;49.268;12.302;2022-07-04T06:40:06;23.10;96.20
17728;DHT22;8984;49.268;12.302;2022-07-04T06:42:33;23.30;96.40
17728;DHT22;8984;49.268;12.302;2022-07-04T06:45:00;23.40;96.60
17728;DHT22;8984;49.268;12.302;2022-07-04T06:47:27;23.60;96.20
17728;DHT22;8984;49.268;12.302;2022-07-04T06:49:53;23.70;96.00
17728;DHT22;8984;49.268;12.302;2022-07-04T06:52:20;23.70;95.80
17728;DHT22;8984;49.268;12.302;2022-07-04T06:54:47;23.70;96.00
17728;DHT22;8984;49.268;12.302;2022-07-04T06:57:15;23.80;96.00
17728;DHT22;8984;49.268;12.302;2022-07-04T06:59:42;23.90;95.80
17728;DHT22;8984;49.268;12.302;2022-07-04T07:02:09;23.80;95.80
17728;DHT22;8984;49.268;12.302;2022-07-04T07:04:35;23.80;95.90
17728;DHT22;8984;49.268;12.302;2022-07-04T07:07:03;23.80;96.00
17728;DHT22;8984;49.268;12.302;2022-07-04T07:09:30;24.00;96.10
17728;DHT22;8984;49.268;12.302;2022-07-04T07:11:57;24.10;96.00
17728;DHT22;8984;49.268;12.302;2022-07-04T07:14:25;24.20;95.80
17728;DHT22;8984;49.268;12.302;2022-07-04T07:16:52;24.20;95.10
17728;DHT22;8984;49.268;12.302;2022-07-04T07:19:19;24.50;94.90
17728;DHT22;8984;49.268;12.302;2022-07-04T07:21:45;24.50;94.80
17728;DHT22;8984;49.268;12.302;2022-07-04T07:24:12;24.50;94.10
17728;DHT22;8984;49.268;12.302;2022-07-04T07:26:39;24.60;94.10
17728;DHT22;8984;49.268;12.302;2022-07-04T07:29:06;24.70;94.40
17728;DHT22;8984;49.268;12.302;2022-07-04T07:31:34;24.80;94.10
17728;DHT22;8984;49.268;12.302;2022-07-04T07:34:01;24.90;93.80
17728;DHT22;8984;49.268;12.302;2022-07-04T07:36:29;24.90;94.00
17728;DHT22;8984;49.268;12.302;2022-07-04T07:38:55;24.90;93.00
17728;DHT22;8984;49.268;12.302;2022-07-04T07:41:22;25.00;93.60
17728;DHT22;8984;49.268;12.302;2022-07-04T07:43:49;25.00;93.60
17728;DHT22;8984;49.268;12.302;2022-07-04T07:46:16;25.00;93.50
17728;DHT22;8984;49.268;12.302;2022-07-04T07:48:44;25.20;93.40
17728;DHT22;8984;49.268;12.302;2022-07-04T07:51:11;25.30;93.00
17728;DHT22;8984;49.268;12.302;2022-07-04T07:53:39;25.40;92.80
17728;DHT22;8984;49.268;12.302;2022-07-04T07:56:06;25.40;92.20
17728;DHT22;8984;49.268;12.302;2022-07-04T07:58:32;25.30;92.20
17728;DHT22;8984;49.268;12.302;2022-07-04T08:00:59;25.50;92.70
17728;DHT22;8984;49.268;12.302;2022-07-04T08:03:28;25.60;92.60
17728;DHT22;8984;49.268;12.302;2022-07-04T08:06:14;25.90;92.50
17728;DHT22;8984;49.268;12.302;2022-07-04T08:08:42;26.00;92.00
17728;DHT22;8984;49.268;12.302;2022-07-04T08:11:09;26.20;92.00
17728;DHT22;8984;49.268;12.302;2022-07-04T08:13:36;26.20;91.90
17728;DHT22;8984;49.268;12.302;2022-07-04T08:16:04;26.30;91.80
17728;DHT22;8984;49.268;12.302;2022-07-04T08:18:31;26.40;91.50
17728;DHT22;8984;49.268;12.302;2022-07-04T08:20:58;26.60;90.60
17728;DHT22;8984;49.268;12.302;2022-07-04T08:23:27;26.70;90.70
17728;DHT22;8984;49.268;12.302;2022-07-04T08:25:55;26.90;90.10
17728;DHT22;8984;49.268;12.302;2022-07-04T08:28:22;27.00;90.60
17728;DHT22;8984;49.268;12.302;2022-07-04T08:30:49;26.80;90.60
17728;DHT22;8984;49.268;12.302;2022-07-04T08:33:15;27.00;90.50
17728;DHT22;8984;49.268;12.302;2022-07-04T08:35:42;27.20;90.20
17728;DHT22;8984;49.268;12.302;2022-07-04T08:38:09;27.40;90.10
17728;DHT22;8984;49.268;12.302;2022-07-04T08:40:37;27.50;89.10
17728;DHT22;8984;49.268;12.302;2022-07-04T08:43:06;27.60;88.50
17728;DHT22;8984;49.268;12.302;2022-07-04T08:45:33;27.70;87.10
17728;DHT22;8984;49.268;12.302;2022-07-04T08:48:03;27.80;86.90
17728;DHT22;8984;49.268;12.302;2022-07-04T08:50:33;28.00;86.70
17728;DHT22;8984;49.268;12.302;2022-07-04T08:53:01;28.00;86.30
17728;DHT22;8984;49.268;12.302;2022-07-04T08:55:29;28.10;85.20
17728;DHT22;8984;49.268;12.302;2022-07-04T08:58:15;28.10;85.80
17728;DHT22;8984;49.268;12.302;2022-07-04T09:00:57;28.10;86.60
17728;DHT22;8984;49.268;12.302;2022-07-04T09:03:25;28.10;86.50
17728;DHT22;8984;49.268;12.302;2022-07-04T09:05:52;28.20;86.10
17728;DHT22;8984;49.268;12.302;2022-07-04T09:08:19;28.10;85.90
17728;DHT22;8984;49.268;12.302;2022-07-04T09:10:47;27.90;85.80
17728;DHT22;8984;49.268;12.302;2022-07-04T09:13:15;28.10;86.40
17728;DHT22;8984;49.268;12.302;2022-07-04T09:15:44;28.20;85.90
17728;DHT22;8984;49.268;12.302;2022-07-04T09:18:23;28.30;85.80
17728;DHT22;8984;49.268;12.302;2022-07-04T09:20:52;28.30;85.40
17728;DHT22;8984;49.268;12.302;2022-07-04T09:23:20;28.30;85.20
17728;DHT22;8984;49.268;12.302;2022-07-04T09:25:48;28.40;85.70
17728;DHT22;8984;49.268;12.302;2022-07-04T09:28:29;28.30;85.80
17728;DHT22;8984;49.268;12.302;2022-07-04T09:30:56;28.50;86.50
17728;DHT22;8984;49.268;12.302;2022-07-04T09:33:44;28.50;86.60
17728;DHT22;8984;49.268;12.302;2022-07-04T09:36:11;28.50;85.70
17728;DHT22;8984;49.268;12.302;2022-07-04T09:38:38;28.50;86.20
17728;DHT22;8984;49.268;12.302;2022-07-04T09:41:05;28.50;85.90
17728;DHT22;8984;49.268;12.302;2022-07-04T09:44:00;28.50;85.70
17728;DHT22;8984;49.268;12.302;2022-07-04T09:46:27;28.60;85.10
17728;DHT22;8984;49.268;12.302;2022-07-04T09:48:53;28.70;85.80
17728;DHT22;8984;49.268;12.302;2022-07-04T09:51:36;28.60;85.90
17728;DHT22;8984;49.268;12.302;2022-07-04T09:54:15;28.70;85.90
17728;DHT22;8984;49.268;12.302;2022-07-04T09:56:44;28.60;85.70
17728;DHT22;8984;49.268;12.302;2022-07-04T09:59:13;28.70;85.00
17728;DHT22;8984;49.268;12.302;2022-07-04T10:01:39;28.60;85.00
17728;DHT22;8984;49.268;12.302;2022-07-04T10:04:07;28.80;85.80
17728;DHT22;8984;49.268;12.302;2022-07-04T10:06:37;28.80;85.10
17728;DHT22;8984;49.268;12.302;2022-07-04T10:09:09;28.90;84.80
17728;DHT22;8984;49.268;12.302;2022-07-04T10:11:37;28.50;83.30
17728;DHT22;8984;49.268;12.302;2022-07-04T10:14:06;28.80;84.40
17728;DHT22;8984;49.268;12.302;2022-07-04T10:16:36;28.90;83.10
17728;DHT22;8984;49.268;12.302;2022-07-04T10:19:04;28.80;83.40
17728;DHT22;8984;49.268;12.302;2022-07-04T10:21:32;28.70;83.70
17728;DHT22;8984;49.268;12.302;2022-07-04T10:24:00;28.80;83.50
17728;DHT22;8984;49.268;12.302;2022-07-04T10:26:29;28.50;83.70
17728;DHT22;8984;49.268;12.302;2022-07-04T10:28:56;28.50;85.70
17728;DHT22;8984;49.268;12.302;2022-07-04T10:31:27;28.60;86.30
17728;DHT22;8984;49.268;12.302;2022-07-04T10:33:57;28.50;85.40
17728;DHT22;8984;49.268;12.302;2022-07-04T10:36:26;28.60;85.10
17728;DHT22;8984;49.268;12.302;2022-07-04T10:38:57;28.80;85.00
17728;DHT22;8984;49.268;12.302;2022-07-04T10:41:25;29.10;83.50
17728;DHT22;8984;49.268;12.302;2022-07-04T10:43:58;29.40;82.20
17728;DHT22;8984;49.268;12.302;2022-07-04T10:46:44;29.50;81.00
17728;DHT22;8984;49.268;12.302;2022-07-04T10:49:34;29.70;79.80
17728;DHT22;8984;49.268;12.302;2022-07-04T10:52:11;29.70;79.50
17728;DHT22;8984;49.268;12.302;2022-07-04T10:54:41;30.10;79.30
17728;DHT22;8984;49.268;12.302;2022-07-04T10:57:14;30.40;79.20
17728;DHT22;8984;49.268;12.302;2022-07-04T10:59:42;30.70;78.70
17728;DHT22;8984;49.268;12.302;2022-07-04T11:02:34;30.80;78.90
17728;DHT22;8984;49.268;12.302;2022-07-04T11:05:05;30.90;77.70
17728;DHT22;8984;49.268;12.302;2022-07-04T11:07:55;31.10;75.80
17728;DHT22;8984;49.268;12.302;2022-07-04T11:10:22;31.20;76.40
17728;DHT22;8984;49.268;12.302;2022-07-04T11:13:09;31.20;76.30
17728;DHT22;8984;49.268;12.302;2022-07-04T11:16:03;31.20;75.20
17728;DHT22;8984;49.268;12.302;2022-07-04T11:18:41;31.20;74.30
17728;DHT22;8984;49.268;12.302;2022-07-04T11:21:24;31.20;74.90
17728;DHT22;8984;49.268;12.302;2022-07-04T11:23:54;31.50;76.20
17728;DHT22;8984;49.268;12.302;2022-07-04T11:26:21;31.50;75.90
17728;DHT22;8984;49.268;12.302;2022-07-04T11:28:49;31.40;75.80
17728;DHT22;8984;49.268;12.302;2022-07-04T11:31:15;31.60;74.90
17728;DHT22;8984;49.268;12.302;2022-07-04T11:33:44;31.90;74.70
17728;DHT22;8984;49.268;12.302;2022-07-04T11:36:13;31.90;74.00
17728;DHT22;8984;49.268;12.302;2022-07-04T11:38:49;31.60;74.40
17728;DHT22;8984;49.268;12.302;2022-07-04T11:41:17;31.80;73.90
17728;DHT22;8984;49.268;12.302;2022-07-04T11:44:03;32.00;73.80
17728;DHT22;8984;49.268;12.302;2022-07-04T11:46:48;32.20;73.80
17728;DHT22;8984;49.268;12.302;2022-07-04T11:49:15;32.40;73.50
17728;DHT22;8984;49.268;12.302;2022-07-04T11:51:43;32.60;74.10
17728;DHT22;8984;49.268;12.302;2022-07-04T11:54:12;32.60;74.00
17728;DHT22;8984;49.268;12.302;2022-07-04T11:56:38;32.40;73.10
17728;DHT22;8984;49.268;12.302;2022-07-04T11:59:10;32.50;74.10
17728;DHT22;8984;49.268;12.302;2022-07-04T12:01:37;32.10;73.70
17728;DHT22;8984;49.268;12.302;2022-07-04T12:04:17;32.10;75.00
17728;DHT22;8984;49.268;12.302;2022-07-04T12:06:46;31.90;75.20
17728;DHT22;8984;49.268;12.302;2022-07-04T12:09:15;32.10;76.30
17728;DHT22;8984;49.268;12.302;2022-07-04T12:11:50;32.40;74.70
17728;DHT22;8984;49.268;12.302;2022-07-04T12:14:17;32.70;73.20
17728;DHT22;8984;49.268;12.302;2022-07-04T12:16:44;32.80;72.60
17728;DHT22;8984;49.268;12.302;2022-07-04T12:19:13;32.90;72.60
17728;DHT22;8984;49.268;12.302;2022-07-04T12:21:42;33.00;72.60
17728;DHT22;8984;49.268;12.302;2022-07-04T12:24:09;32.70;72.50
17728;DHT22;8984;49.268;12.302;2022-07-04T12:26:48;32.80;73.00
17728;DHT22;8984;49.268;12.302;2022-07-04T12:29:22;33.00;71.70
17728;DHT22;8984;49.268;12.302;2022-07-04T12:31:54;32.80;71.80
17728;DHT22;8984;49.268;12.302;2022-07-04T12:34:23;32.50;72.60
17728;DHT22;8984;49.268;12.302;2022-07-04T12:36:53;32.60;73.00
17728;DHT22;8984;49.268;12.302;2022-07-04T12:39:29;32.40;72.70
17728;DHT22;8984;49.268;12.302;2022-07-04T12:42:08;32.40;73.20
17728;DHT22;8984;49.268;12.302;2022-07-04T12:44:35;32.20;72.80
17728;DHT22;8984;49.268;12.302;2022-07-04T12:47:03;32.40;73.60
17728;DHT22;8984;49.268;12.302;2022-07-04T12:49:31;32.50;71.90
17728;DHT22;8984;49.268;12.302;2022-07-04T12:52:09;32.60;72.80
17728;DHT22;8984;49.268;12.302;2022-07-04T12:54:37;32.60;71.00
17728;DHT22;8984;49.268;12.302;2022-07-04T12:57:09;32.60;71.60
17728;DHT22;8984;49.268;12.302;2022-07-04T12:59:36;32.60;73.00
17728;DHT22;8984;49.268;12.302;2022-07-04T13:02:03;32.20;70.30
17728;DHT22;8984;49.268;12.302;2022-07-04T13:04:31;32.40;72.20
17728;DHT22;8984;49.268;12.302;2022-07-04T13:06:59;32.40;72.80
17728;DHT22;8984;49.268;12.302;2022-07-04T13:09:26;32.30;72.50
17728;DHT22;8984;49.268;12.302;2022-07-04T13:11:54;32.10;72.50
17728;DHT22;8984;49.268;12.302;2022-07-04T13:14:39;32.10;72.40
17728;DHT22;8984;49.268;12.302;2022-07-04T13:17:06;32.10;71.20
17728;DHT22;8984;49.268;12.302;2022-07-04T13:19:33;32.10;72.20
17728;DHT22;8984;49.268;12.302;2022-07-04T13:22:00;32.00;71.80
17728;DHT22;8984;49.268;12.302;2022-07-04T13:24:26;31.90;72.00
17728;DHT22;8984;49.268;12.302;2022-07-04T13:26:53;31.70;70.90
17728;DHT22;8984;49.268;12.302;2022-07-04T13:29:20;31.50;72.90
17728;DHT22;8984;49.268;12.302;2022-07-04T13:31:49;31.70;72.60
17728;DHT22;8984;49.268;12.302;2022-07-04T13:34:16;31.90;72.70
17728;DHT22;8984;49.268;12.302;2022-07-04T13:36:43;31.90;72.40
17728;DHT22;8984;49.268;12.302;2022-07-04T13:39:10;31.70;71.60
17728;DHT22;8984;49.268;12.302;2022-07-04T13:41:37;31.50;71.00
17728;DHT22;8984;49.268;12.302;2022-07-04T13:44:05;31.60;72.20
17728;DHT22;8984;49.268;12.302;2022-07-04T13:46:34;31.70;71.80
17728;DHT22;8984;49.268;12.302;2022-07-04T13:49:03;31.90;71.20
17728;DHT22;8984;49.268;12.302;2022-07-04T13:51:30;31.80;71.90
17728;DHT22;8984;49.268;12.302;2022-07-04T13:53:57;32.00;71.80
17728;DHT22;8984;49.268;12.302;2022-07-04T13:56:24;32.20;71.10
17728;DHT22;8984;49.268;12.302;2022-07-04T13:58:51;32.10;69.70
17728;DHT22;8984;49.268;12.302;2022-07-04T14:01:18;32.00;70.20
17728;DHT22;8984;49.268;12.302;2022-07-04T14:03:45;32.40;70.70
17728;DHT22;8984;49.268;12.302;2022-07-04T14:06:14;32.60;70.30
17728;DHT22;8984;49.268;12.302;2022-07-04T14:08:42;32.90;69.40
17728;DHT22;8984;49.268;12.302;2022-07-04T14:11:09;33.20;69.20
17728;DHT22;8984;49.268;12.302;2022-07-04T14:13:38;33.20;68.40
17728;DHT22;8984;49.268;12.302;2022-07-04T14:16:06;33.20;68.40
17728;DHT22;8984;49.268;12.302;2022-07-04T14:18:33;33.00;68.60
17728;DHT22;8984;49.268;12.302;2022-07-04T14:21:00;32.90;69.20
17728;DHT22;8984;49.268;12.302;2022-07-04T14:23:29;32.60;69.10
17728;DHT22;8984;49.268;12.302;2022-07-04T14:26:11;32.40;69.00
17728;DHT22;8984;49.268;12.302;2022-07-04T14:28:38;32.60;69.60
17728;DHT22;8984;49.268;12.302;2022-07-04T14:31:05;32.70;68.70
17728;DHT22;8984;49.268;12.302;2022-07-04T14:33:32;32.40;68.80
17728;DHT22;8984;49.268;12.302;2022-07-04T14:36:00;32.60;69.80
17728;DHT22;8984;49.268;12.302;2022-07-04T14:38:28;32.60;68.90
17728;DHT22;8984;49.268;12.302;2022-07-04T14:40:55;32.50;68.40
17728;DHT22;8984;49.268;12.302;2022-07-04T14:43:38;32.00;68.40
17728;DHT22;8984;49.268;12.302;2022-07-04T14:46:05;32.20;69.70
17728;DHT22;8984;49.268;12.302;2022-07-04T14:48:32;31.90;69.00
17728;DHT22;8984;49.268;12.302;2022-07-04T14:50:59;32.10;69.80
17728;DHT22;8984;49.268;12.302;2022-07-04T14:53:26;31.50;68.70
17728;DHT22;8984;49.268;12.302;2022-07-04T14:55:54;31.30;70.20
17728;DHT22;8984;49.268;12.302;2022-07-04T14:58:21;31.10;71.00
17728;DHT22;8984;49.268;12.302;2022-07-04T15:00:48;31.20;70.90
17728;DHT22;8984;49.268;12.302;2022-07-04T15:03:15;31.40;70.30
17728;DHT22;8984;49.268;12.302;2022-07-04T15:05:42;31.50;69.80
17728;DHT22;8984;49.268;12.302;2022-07-04T15:08:09;31.60;69.80
17728;DHT22;8984;49.268;12.302;2022-07-04T15:10:37;31.50;70.30
17728;DHT22;8984;49.268;12.302;2022-07-04T15:13:05;31.50;70.10
17728;DHT22;8984;49.268;12.302;2022-07-04T15:15:32;31.80;70.00
17728;DHT22;8984;49.268;12.302;2022-07-04T15:17:59;31.60;69.40
17728;DHT22;8984;49.268;12.302;2022-07-04T15:20:26;31.70;69.40
17728;DHT22;8984;49.268;12.302;2022-07-04T15:23:11;31.80;70.00
17728;DHT22;8984;49.268;12.302;2022-07-04T15:25:55;32.20;69.80
17728;DHT22;8984;49.268;12.302;2022-07-04T15:28:24;31.50;68.30
17728;DHT22;8984;49.268;12.302;2022-07-04T15:30:50;31.30;68.50
17728;DHT22;8984;49.268;12.302;2022-07-04T15:33:17;31.70;70.00
17728;DHT22;8984;49.268;12.302;2022-07-04T15:35:44;31.90;68.90
17728;DHT22;8984;49.268;12.302;2022-07-04T15:38:12;32.00;68.40
17728;DHT22;8984;49.268;12.302;2022-07-04T15:40:41;32.20;69.10